sensor_id;sensor_type;location;lat;lon;timestamp;temperature;humidity
26803;DHT22;14378;51.796;5.808;2022-09-06T00:13:37;22.20;98.90
26803;DHT22;14378;51.796;5.808;2022-09-06T00:15:38;22.00;99.10
26803;DHT22;14378;51.796;5.808;2022-09-06T00:17:46;22.00;99.10
26803;DHT22;14378;51.796;5.808;2022-09-06T00:19:47;22.10;99.00
26803;DHT22;14378;51.796;5.808;2022-09-06T00:21:54;22.10;98.90
26803;DHT22;14378;51.796;5.808;2022-09-06T00:23:56;22.10;98.80
26803;DHT22;14378;51.796;5.808;2022-09-06T00:26:03;22.10;98.90
26803;DHT22;14378;51.796;5.808;2022-09-06T00:28:04;22.10;98.90
26803;DHT22;14378;51.796;5.808;2022-09-06T00:30:06;22.20;98.90
26803;DHT22;14378;51.796;5.808;2022-09-06T00:32:14;22.10;99.00
26803;DHT22;14378;51.796;5.808;2022-09-06T00:34:15;22.20;99.00
26803;DHT22;14378;51.796;5.808;2022-09-06T00:36:19;22.10;99.10
26803;DHT22;14378;51.796;5.808;2022-09-06T00:38:21;22.10;99.20
26803;DHT22;14378;51.796;5.808;2022-09-06T00:40:27;22.10;99.40
26803;DHT22;14378;51.796;5.808;2022-09-06T00:42:29;22.10;99.50
26803;DHT22;14378;51.796;5.808;2022-09-06T00:44:35;22.10;99.60
26803;DHT22;14378;51.796;5.808;2022-09-06T00:46:38;22.10;99.90
26803;DHT22;14378;51.796;5.808;2022-09-06T00:48:40;22.10;99.90
26803;DHT22;14378;51.796;5.808;2022-09-06T00:50:45;22.10;99.90
26803;DHT22;14378;51.796;5.808;2022-09-06T00:52:50;22.00;99.90
26803;DHT22;14378;51.796;5.808;2022-09-06T00:54:53;22.10;99.90
26803;DHT22;14378;51.796;5.808;2022-09-06T00:56:56;22.00;99.90
26803;DHT22;14378;51.796;5.808;2022-09-06T00:58:59;22.00;99.90
26803;DHT22;14378;51.796;5.808;2022-09-06T01:01:02;22.00;99.90
26803;DHT22;14378;51.796;5.808;2022-09-06T01:03:06;21.90;99.90
26803;DHT22;14378;51.796;5.808;2022-09-06T01:05:13;21.70;99.90
26803;DHT22;14378;51.796;5.808;2022-09-06T01:15:06;20.50;99.90
26803;DHT22;14378;51.796;5.808;2022-09-06T01:19:53;20.00;99.90
26803;DHT22;14378;51.796;5.808;2022-09-06T01:31:51;20.20;99.90
26803;DHT22;14378;51.796;5.808;2022-09-06T01:36:13;20.40;99.90
26803;DHT22;14378;51.796;5.808;2022-09-06T01:38:21;20.40;99.90
26803;DHT22;14378;51.796;5.808;2022-09-06T01:40:23;20.40;99.90
26803;DHT22;14378;51.796;5.808;2022-09-06T01:42:30;20.50;99.90
26803;DHT22;14378;51.796;5.808;2022-09-06T01:44:32;20.50;99.90
26803;DHT22;14378;51.796;5.808;2022-09-06T01:46:41;20.60;99.90
26803;DHT22;14378;51.796;5.808;2022-09-06T01:48:59;20.60;99.90
26803;DHT22;14378;51.796;5.808;2022-09-06T01:55:50;20.60;99.90
26803;DHT22;14378;51.796;5.808;2022-09-06T02:00:18;20.60;99.90
26803;DHT22;14378;51.796;5.808;2022-09-06T02:03:13;20.60;99.90
26803;DHT22;14378;51.796;5.808;2022-09-06T02:05:40;20.60;99.90
26803;DHT22;14378;51.796;5.808;2022-09-06T02:07:43;20.60;99.90
26803;DHT22;14378;51.796;5.808;2022-09-06T02:09:52;20.60;99.90
26803;DHT22;14378;51.796;5.808;2022-09-06T02:11:57;20.60;99.90
26803;DHT22;14378;51.796;5.808;2022-09-06T02:14:08;20.60;99.90
26803;DHT22;14378;51.796;5.808;2022-09-06T02:16:16;20.50;99.90
26803;DHT22;14378;51.796;5.808;2022-09-06T02:19:37;20.50;99.90
26803;DHT22;14378;51.796;5.808;2022-09-06T02:21:05;20.50;99.90
26803;DHT22;14378;51.796;5.808;2022-09-06T02:23:11;20.50;99.90
26803;DHT22;14378;51.796;5.808;2022-09-06T02:25:22;20.50;99.90
26803;DHT22;14378;51.796;5.808;2022-09-06T02:27:24;20.40;99.90
26803;DHT22;14378;51.796;5.808;2022-09-06T02:29:29;20.30;99.90
26803;DHT22;14378;51.796;5.808;2022-09-06T02:31:55;20.30;99.90
26803;DHT22;14378;51.796;5.808;2022-09-06T02:34:13;20.30;99.90
26803;DHT22;14378;51.796;5.808;2022-09-06T02:36:16;20.30;99.90
26803;DHT22;14378;51.796;5.808;2022-09-06T02:38:21;20.30;99.90
26803;DHT22;14378;51.796;5.808;2022-09-06T02:40:23;20.30;99.90
26803;DHT22;14378;51.796;5.808;2022-09-06T02:42:24;20.30;99.90
26803;DHT22;14378;51.796;5.808;2022-09-06T02:44:25;20.30;99.90
26803;DHT22;14378;51.796;5.808;2022-09-06T02:46:27;20.30;99.90
26803;DHT22;14378;51.796;5.808;2022-09-06T02:48:35;20.30;99.90
26803;DHT22;14378;51.796;5.808;2022-09-06T02:50:36;20.30;99.90
26803;DHT22;14378;51.796;5.808;2022-09-06T02:52:40;20.40;99.90
26803;DHT22;14378;51.796;5.808;2022-09-06T02:54:42;20.40;99.90
26803;DHT22;14378;51.796;5.808;2022-09-06T02:56:45;20.40;99.90
26803;DHT22;14378;51.796;5.808;2022-09-06T02:58:46;20.40;99.90
26803;DHT22;14378;51.796;5.808;2022-09-06T03:00:49;20.30;99.90
26803;DHT22;14378;51.796;5.808;2022-09-06T03:02:50;20.30;99.90
26803;DHT22;14378;51.796;5.808;2022-09-06T03:04:57;20.30;99.90
26803;DHT22;14378;51.796;5.808;2022-09-06T03:06:59;20.30;99.90
26803;DHT22;14378;51.796;5.808;2022-09-06T03:09:01;20.30;99.90
26803;DHT22;14378;51.796;5.808;2022-09-06T03:11:03;20.30;99.90
26803;DHT22;14378;51.796;5.808;2022-09-06T03:13:06;20.30;99.90
26803;DHT22;14378;51.796;5.808;2022-09-06T03:15:10;20.20;99.90
26803;DHT22;14378;51.796;5.808;2022-09-06T03:17:14;20.30;99.90
26803;DHT22;14378;51.796;5.808;2022-09-06T03:19:15;20.30;99.90
26803;DHT22;14378;51.796;5.808;2022-09-06T03:21:18;20.20;99.90
26803;DHT22;14378;51.796;5.808;2022-09-06T03:23:22;20.20;99.90
26803;DHT22;14378;51.796;5.808;2022-09-06T03:25:25;20.10;99.90
26803;DHT22;14378;51.796;5.808;2022-09-06T03:27:38;20.00;99.90
26803;DHT22;14378;51.796;5.808;2022-09-06T03:29:42;20.00;99.90
26803;DHT22;14378;51.796;5.808;2022-09-06T03:31:43;20.00;99.90
26803;DHT22;14378;51.796;5.808;2022-09-06T03:33:44;20.00;99.90
26803;DHT22;14378;51.796;5.808;2022-09-06T03:35:54;20.00;99.90
26803;DHT22;14378;51.796;5.808;2022-09-06T03:37:56;19.90;99.90
26803;DHT22;14378;51.796;5.808;2022-09-06T03:39:58;19.90;99.90
26803;DHT22;14378;51.796;5.808;2022-09-06T03:42:05;19.90;99.90
26803;DHT22;14378;51.796;5.808;2022-09-06T03:44:07;19.80;99.90
26803;DHT22;14378;51.796;5.808;2022-09-06T03:46:08;19.80;99.90
26803;DHT22;14378;51.796;5.808;2022-09-06T03:48:09;19.80;99.90
26803;DHT22;14378;51.796;5.808;2022-09-06T03:50:11;19.80;99.90
26803;DHT22;14378;51.796;5.808;2022-09-06T03:52:13;19.80;99.90
26803;DHT22;14378;51.796;5.808;2022-09-06T03:54:14;19.80;99.90
26803;DHT22;14378;51.796;5.808;2022-09-06T03:56:16;19.80;99.90
26803;DHT22;14378;51.796;5.808;2022-09-06T03:58:19;19.80;99.90
26803;DHT22;14378;51.796;5.808;2022-09-06T04:00:23;19.80;99.90
26803;DHT22;14378;51.796;5.808;2022-09-06T04:02:28;19.90;99.90
26803;DHT22;14378;51.796;5.808;2022-09-06T04:04:29;19.80;99.90
26803;DHT22;14378;51.796;5.808;2022-09-06T04:06:33;19.80;99.90
26803;DHT22;14378;51.796;5.808;2022-09-06T04:08:37;19.80;99.90
26803;DHT22;14378;51.796;5.808;2022-09-06T04:10:41;19.90;99.90
26803;DHT22;14378;51.796;5.808;2022-09-06T04:12:44;19.90;99.90
26803;DHT22;14378;51.796;5.808;2022-09-06T04:14:49;19.90;99.90
26803;DHT22;14378;51.796;5.808;2022-09-06T04:16:52;19.90;99.90
26803;DHT22;14378;51.796;5.808;2022-09-06T04:18:58;19.90;99.90
26803;DHT22;14378;51.796;5.808;2022-09-06T04:21:04;19.90;99.90
26803;DHT22;14378;51.796;5.808;2022-09-06T04:23:05;19.90;99.90
26803;DHT22;14378;51.796;5.808;2022-09-06T04:25:13;19.80;99.90
26803;DHT22;14378;51.796;5.808;2022-09-06T04:27:15;19.80;99.90
26803;DHT22;14378;51.796;5.808;2022-09-06T04:29:16;19.80;99.90
26803;DHT22;14378;51.796;5.808;2022-09-06T04:31:18;19.80;99.90
26803;DHT22;14378;51.796;5.808;2022-09-06T04:33:19;19.80;99.90
26803;DHT22;14378;51.796;5.808;2022-09-06T04:35:21;19.80;99.90
26803;DHT22;14378;51.796;5.808;2022-09-06T04:37:28;19.70;99.90
26803;DHT22;14378;51.796;5.808;2022-09-06T04:39:29;19.70;99.90
26803;DHT22;14378;51.796;5.808;2022-09-06T04:41:30;19.70;99.90
26803;DHT22;14378;51.796;5.808;2022-09-06T04:43:34;19.70;99.90
26803;DHT22;14378;51.796;5.808;2022-09-06T04:45:35;19.70;99.90
26803;DHT22;14378;51.796;5.808;2022-09-06T04:47:36;19.70;99.90
26803;DHT22;14378;51.796;5.808;2022-09-06T04:49:37;19.60;99.90
26803;DHT22;14378;51.796;5.808;2022-09-06T04:51:38;19.60;99.90
26803;DHT22;14378;51.796;5.808;2022-09-06T04:53:43;19.60;99.90
26803;DHT22;14378;51.796;5.808;2022-09-06T04:55:49;19.60;99.90
26803;DHT22;14378;51.796;5.808;2022-09-06T04:57:51;19.60;99.90
26803;DHT22;14378;51.796;5.808;2022-09-06T04:59:52;19.50;99.90
26803;DHT22;14378;51.796;5.808;2022-09-06T05:01:55;19.50;99.90
26803;DHT22;14378;51.796;5.808;2022-09-06T05:03:56;19.50;99.90
26803;DHT22;14378;51.796;5.808;2022-09-06T05:06:12;19.50;99.90
26803;DHT22;14378;51.796;5.808;2022-09-06T05:08:21;19.50;99.90
26803;DHT22;14378;51.796;5.808;2022-09-06T05:10:23;19.50;99.90
26803;DHT22;14378;51.796;5.808;2022-09-06T05:12:23;19.40;99.90
26803;DHT22;14378;51.796;5.808;2022-09-06T05:14:26;19.40;99.90
26803;DHT22;14378;51.796;5.808;2022-09-06T05:16:32;19.40;99.90
26803;DHT22;14378;51.796;5.808;2022-09-06T05:18:33;19.40;99.90
26803;DHT22;14378;51.796;5.808;2022-09-06T05:20:35;19.40;99.90
26803;DHT22;14378;51.796;5.808;2022-09-06T05:22:50;19.30;99.90
26803;DHT22;14378;51.796;5.808;2022-09-06T05:24:58;19.30;99.90
26803;DHT22;14378;51.796;5.808;2022-09-06T05:27:00;19.30;99.90
26803;DHT22;14378;51.796;5.808;2022-09-06T05:29:08;19.30;99.90
26803;DHT22;14378;51.796;5.808;2022-09-06T05:31:12;19.30;99.90
26803;DHT22;14378;51.796;5.808;2022-09-06T05:33:28;19.20;99.90
26803;DHT22;14378;51.796;5.808;2022-09-06T05:35:40;19.20;99.90
26803;DHT22;14378;51.796;5.808;2022-09-06T05:37:41;19.30;99.90
26803;DHT22;14378;51.796;5.808;2022-09-06T05:39:48;19.20;99.90
26803;DHT22;14378;51.796;5.808;2022-09-06T05:42:02;19.20;99.90
26803;DHT22;14378;51.796;5.808;2022-09-06T05:44:06;19.20;99.90
26803;DHT22;14378;51.796;5.808;2022-09-06T05:46:08;19.20;99.90
26803;DHT22;14378;51.796;5.808;2022-09-06T05:48:15;19.20;99.90
26803;DHT22;14378;51.796;5.808;2022-09-06T05:50:17;19.20;99.90
26803;DHT22;14378;51.796;5.808;2022-09-06T05:52:19;19.10;99.90
26803;DHT22;14378;51.796;5.808;2022-09-06T05:54:20;19.10;99.90
26803;DHT22;14378;51.796;5.808;2022-09-06T05:56:23;19.10;99.90
26803;DHT22;14378;51.796;5.808;2022-09-06T05:58:25;19.10;99.90
26803;DHT22;14378;51.796;5.808;2022-09-06T06:00:32;19.10;99.90
26803;DHT22;14378;51.796;5.808;2022-09-06T06:02:34;19.10;99.90
26803;DHT22;14378;51.796;5.808;2022-09-06T06:04:36;19.10;99.90
26803;DHT22;14378;51.796;5.808;2022-09-06T06:06:38;19.10;99.90
26803;DHT22;14378;51.796;5.808;2022-09-06T06:08:40;19.10;99.90
26803;DHT22;14378;51.796;5.808;2022-09-06T06:10:42;19.20;99.90
26803;DHT22;14378;51.796;5.808;2022-09-06T06:12:44;19.10;99.90
26803;DHT22;14378;51.796;5.808;2022-09-06T06:14:45;19.20;99.90
26803;DHT22;14378;51.796;5.808;2022-09-06T06:16:46;19.20;99.90
26803;DHT22;14378;51.796;5.808;2022-09-06T06:18:50;19.20;99.90
26803;DHT22;14378;51.796;5.808;2022-09-06T06:20:52;19.20;99.90
26803;DHT22;14378;51.796;5.808;2022-09-06T06:23:06;19.20;99.90
26803;DHT22;14378;51.796;5.808;2022-09-06T06:25:07;19.30;99.90
26803;DHT22;14378;51.796;5.808;2022-09-06T06:27:08;19.30;99.90
26803;DHT22;14378;51.796;5.808;2022-09-06T06:29:09;19.40;99.90
26803;DHT22;14378;51.796;5.808;2022-09-06T06:31:11;19.40;99.90
26803;DHT22;14378;51.796;5.808;2022-09-06T06:33:21;19.40;99.90
26803;DHT22;14378;51.796;5.808;2022-09-06T06:35:22;19.40;99.90
26803;DHT22;14378;51.796;5.808;2022-09-06T06:37:23;19.50;99.90
26803;DHT22;14378;51.796;5.808;2022-09-06T06:39:24;19.50;99.90
26803;DHT22;14378;51.796;5.808;2022-09-06T06:41:29;19.50;99.90
26803;DHT22;14378;51.796;5.808;2022-09-06T06:43:32;19.60;99.90
26803;DHT22;14378;51.796;5.808;2022-09-06T06:45:38;19.60;99.90
26803;DHT22;14378;51.796;5.808;2022-09-06T06:47:38;19.60;99.90
26803;DHT22;14378;51.796;5.808;2022-09-06T06:49:40;19.60;99.90
26803;DHT22;14378;51.796;5.808;2022-09-06T06:51:41;19.70;99.90
26803;DHT22;14378;51.796;5.808;2022-09-06T06:53:44;19.70;99.90
26803;DHT22;14378;51.796;5.808;2022-09-06T06:55:50;19.70;99.90
26803;DHT22;14378;51.796;5.808;2022-09-06T06:57:58;19.80;99.90
26803;DHT22;14378;51.796;5.808;2022-09-06T07:00:45;19.80;99.90
26803;DHT22;14378;51.796;5.808;2022-09-06T07:02:46;19.80;99.90
26803;DHT22;14378;51.796;5.808;2022-09-06T07:04:48;19.90;99.90
26803;DHT22;14378;51.796;5.808;2022-09-06T07:06:51;19.90;99.90
26803;DHT22;14378;51.796;5.808;2022-09-06T07:08:55;19.90;99.90
26803;DHT22;14378;51.796;5.808;2022-09-06T07:10:56;19.90;99.90
26803;DHT22;14378;51.796;5.808;2022-09-06T07:12:58;20.00;99.90
26803;DHT22;14378;51.796;5.808;2022-09-06T07:14:59;20.00;99.90
26803;DHT22;14378;51.796;5.808;2022-09-06T07:17:02;20.00;99.90
26803;DHT22;14378;51.796;5.808;2022-09-06T07:19:03;20.10;99.90
26803;DHT22;14378;51.796;5.808;2022-09-06T07:21:16;20.10;99.90
26803;DHT22;14378;51.796;5.808;2022-09-06T07:23:17;20.10;99.90
26803;DHT22;14378;51.796;5.808;2022-09-06T07:25:18;20.20;99.90
26803;DHT22;14378;51.796;5.808;2022-09-06T07:27:24;20.20;99.90
26803;DHT22;14378;51.796;5.808;2022-09-06T07:29:25;20.20;99.90
26803;DHT22;14378;51.796;5.808;2022-09-06T07:31:27;20.30;99.90
26803;DHT22;14378;51.796;5.808;2022-09-06T07:33:29;20.30;99.90
26803;DHT22;14378;51.796;5.808;2022-09-06T07:35:32;20.40;99.90
26803;DHT22;14378;51.796;5.808;2022-09-06T07:37:51;20.40;99.90
26803;DHT22;14378;51.796;5.808;2022-09-06T07:39:56;20.40;99.90
26803;DHT22;14378;51.796;5.808;2022-09-06T07:41:59;20.40;99.90
26803;DHT22;14378;51.796;5.808;2022-09-06T07:44:02;20.40;99.90
26803;DHT22;14378;51.796;5.808;2022-09-06T07:46:13;20.50;99.90
26803;DHT22;14378;51.796;5.808;2022-09-06T07:48:14;20.50;99.90
26803;DHT22;14378;51.796;5.808;2022-09-06T07:50:16;20.60;99.90
26803;DHT22;14378;51.796;5.808;2022-09-06T07:52:17;20.60;99.90
26803;DHT22;14378;51.796;5.808;2022-09-06T07:54:20;20.70;99.90
26803;DHT22;14378;51.796;5.808;2022-09-06T07:56:24;20.70;99.90
26803;DHT22;14378;51.796;5.808;2022-09-06T07:58:27;20.80;99.90
26803;DHT22;14378;51.796;5.808;2022-09-06T08:00:29;20.80;99.90
26803;DHT22;14378;51.796;5.808;2022-09-06T08:02:32;20.80;99.90
26803;DHT22;14378;51.796;5.808;2022-09-06T08:04:43;20.90;99.90
26803;DHT22;14378;51.796;5.808;2022-09-06T08:06:48;21.00;99.90
26803;DHT22;14378;51.796;5.808;2022-09-06T08:08:52;21.10;99.90
26803;DHT22;14378;51.796;5.808;2022-09-06T08:10:53;21.10;99.90
26803;DHT22;14378;51.796;5.808;2022-09-06T08:12:55;21.20;99.90
26803;DHT22;14378;51.796;5.808;2022-09-06T08:14:57;21.20;99.90
26803;DHT22;14378;51.796;5.808;2022-09-06T08:16:58;21.30;99.90
26803;DHT22;14378;51.796;5.808;2022-09-06T08:19:02;21.30;99.90
26803;DHT22;14378;51.796;5.808;2022-09-06T08:21:08;21.40;99.90
26803;DHT22;14378;51.796;5.808;2022-09-06T08:23:11;21.40;99.90
26803;DHT22;14378;51.796;5.808;2022-09-06T08:25:14;21.50;99.90
26803;DHT22;14378;51.796;5.808;2022-09-06T08:27:15;21.60;99.90
26803;DHT22;14378;51.796;5.808;2022-09-06T08:29:16;21.60;99.90
26803;DHT22;14378;51.796;5.808;2022-09-06T08:31:22;21.70;99.90
26803;DHT22;14378;51.796;5.808;2022-09-06T08:33:26;21.80;99.90
26803;DHT22;14378;51.796;5.808;2022-09-06T08:35:27;21.90;99.90
26803;DHT22;14378;51.796;5.808;2022-09-06T08:37:28;21.90;99.90
26803;DHT22;14378;51.796;5.808;2022-09-06T08:39:29;22.00;99.90
26803;DHT22;14378;51.796;5.808;2022-09-06T08:46:05;22.30;99.90
26803;DHT22;14378;51.796;5.808;2022-09-06T08:48:07;22.50;99.90
26803;DHT22;14378;51.796;5.808;2022-09-06T08:50:09;22.50;99.90
26803;DHT22;14378;51.796;5.808;2022-09-06T08:59:38;23.20;99.90
26803;DHT22;14378;51.796;5.808;2022-09-06T09:02:11;23.40;99.90
26803;DHT22;14378;51.796;5.808;2022-09-06T09:04:21;23.60;99.90
26803;DHT22;14378;51.796;5.808;2022-09-06T09:06:31;23.80;99.90
26803;DHT22;14378;51.796;5.808;2022-09-06T09:08:46;24.00;99.90
26803;DHT22;14378;51.796;5.808;2022-09-06T09:11:15;24.10;99.90
26803;DHT22;14378;51.796;5.808;2022-09-06T09:14:07;24.30;99.90
26803;DHT22;14378;51.796;5.808;2022-09-06T09:16:05;24.60;99.90
26803;DHT22;14378;51.796;5.808;2022-09-06T09:18:28;24.90;99.90
26803;DHT22;14378;51.796;5.808;2022-09-06T09:20:31;25.10;99.90
26803;DHT22;14378;51.796;5.808;2022-09-06T09:22:32;25.40;99.90
26803;DHT22;14378;51.796;5.808;2022-09-06T09:24:34;25.50;99.90
26803;DHT22;14378;51.796;5.808;2022-09-06T09:27:09;25.70;99.90
26803;DHT22;14378;51.796;5.808;2022-09-06T09:29:12;25.80;99.90
26803;DHT22;14378;51.796;5.808;2022-09-06T09:31:52;25.90;99.90
26803;DHT22;14378;51.796;5.808;2022-09-06T09:33:53;26.10;99.90
26803;DHT22;14378;51.796;5.808;2022-09-06T09:36:07;26.20;99.90
26803;DHT22;14378;51.796;5.808;2022-09-06T09:38:30;26.30;99.90
26803;DHT22;14378;51.796;5.808;2022-09-06T09:40:48;26.30;99.90
26803;DHT22;14378;51.796;5.808;2022-09-06T09:42:53;26.50;99.90
26803;DHT22;14378;51.796;5.808;2022-09-06T09:44:59;26.80;99.90
26803;DHT22;14378;51.796;5.808;2022-09-06T09:47:24;27.10;99.90
26803;DHT22;14378;51.796;5.808;2022-09-06T09:49:28;27.40;99.90
26803;DHT22;14378;51.796;5.808;2022-09-06T09:53:59;27.90;99.90
26803;DHT22;14378;51.796;5.808;2022-09-06T09:56:01;28.20;99.90
26803;DHT22;14378;51.796;5.808;2022-09-06T09:58:04;28.30;99.90
26803;DHT22;14378;51.796;5.808;2022-09-06T10:00:10;28.30;97.60
26803;DHT22;14378;51.796;5.808;2022-09-06T10:04:36;28.40;98.20
26803;DHT22;14378;51.796;5.808;2022-09-06T10:06:40;28.50;98.40
26803;DHT22;14378;51.796;5.808;2022-09-06T10:08:48;28.70;98.20
26803;DHT22;14378;51.796;5.808;2022-09-06T10:10:49;28.90;97.60
26803;DHT22;14378;51.796;5.808;2022-09-06T10:13:18;29.00;97.20
26803;DHT22;14378;51.796;5.808;2022-09-06T10:15:39;29.20;97.20
26803;DHT22;14378;51.796;5.808;2022-09-06T10:17:51;29.10;95.20
26803;DHT22;14378;51.796;5.808;2022-09-06T10:19:53;29.10;96.00
26803;DHT22;14378;51.796;5.808;2022-09-06T10:22:00;29.20;96.60
26803;DHT22;14378;51.796;5.808;2022-09-06T10:24:10;29.40;95.80
26803;DHT22;14378;51.796;5.808;2022-09-06T10:28:32;29.60;95.10
26803;DHT22;14378;51.796;5.808;2022-09-06T10:30:38;29.70;95.20
26803;DHT22;14378;51.796;5.808;2022-09-06T10:32:59;29.80;94.60
26803;DHT22;14378;51.796;5.808;2022-09-06T10:40:04;30.50;94.30
26803;DHT22;14378;51.796;5.808;2022-09-06T10:42:22;30.80;93.90
26803;DHT22;14378;51.796;5.808;2022-09-06T10:46:29;31.10;93.10
26803;DHT22;14378;51.796;5.808;2022-09-06T10:48:34;31.10;92.10
26803;DHT22;14378;51.796;5.808;2022-09-06T10:50:47;31.10;92.70
26803;DHT22;14378;51.796;5.808;2022-09-06T10:52:50;31.30;93.20
26803;DHT22;14378;51.796;5.808;2022-09-06T10:54:57;31.40;93.00
26803;DHT22;14378;51.796;5.808;2022-09-06T10:57:09;31.60;92.10
26803;DHT22;14378;51.796;5.808;2022-09-06T10:59:30;31.60;93.00
26803;DHT22;14378;51.796;5.808;2022-09-06T11:01:44;31.60;92.90
26803;DHT22;14378;51.796;5.808;2022-09-06T11:03:50;31.60;91.80
26803;DHT22;14378;51.796;5.808;2022-09-06T11:05:59;31.40;91.00
26803;DHT22;14378;51.796;5.808;2022-09-06T11:08:06;31.20;92.70
26803;DHT22;14378;51.796;5.808;2022-09-06T11:10:37;30.90;91.50
26803;DHT22;14378;51.796;5.808;2022-09-06T11:15:05;30.80;93.30
26803;DHT22;14378;51.796;5.808;2022-09-06T11:20:07;30.70;92.70
26803;DHT22;14378;51.796;5.808;2022-09-06T11:29:49;31.40;91.40
26803;DHT22;14378;51.796;5.808;2022-09-06T11:32:02;31.30;91.50
26803;DHT22;14378;51.796;5.808;2022-09-06T11:38:41;31.30;91.60
26803;DHT22;14378;51.796;5.808;2022-09-06T11:41:03;31.20;91.20
26803;DHT22;14378;51.796;5.808;2022-09-06T11:43:41;31.20;91.70
26803;DHT22;14378;51.796;5.808;2022-09-06T11:45:48;31.40;92.20
26803;DHT22;14378;51.796;5.808;2022-09-06T11:54:55;32.00;91.00
26803;DHT22;14378;51.796;5.808;2022-09-06T11:57:14;32.00;92.10
26803;DHT22;14378;51.796;5.808;2022-09-06T12:08:25;32.80;91.10
26803;DHT22;14378;51.796;5.808;2022-09-06T12:12:47;32.20;90.40
26803;DHT22;14378;51.796;5.808;2022-09-06T12:14:50;32.30;90.70
26803;DHT22;14378;51.796;5.808;2022-09-06T12:21:52;32.70;90.80
26803;DHT22;14378;51.796;5.808;2022-09-06T12:23:54;32.80;90.60
26803;DHT22;14378;51.796;5.808;2022-09-06T12:25:56;32.80;90.30
26803;DHT22;14378;51.796;5.808;2022-09-06T12:28:01;32.90;90.40
26803;DHT22;14378;51.796;5.808;2022-09-06T12:30:12;33.00;89.60
26803;DHT22;14378;51.796;5.808;2022-09-06T12:32:46;33.30;90.00
26803;DHT22;14378;51.796;5.808;2022-09-06T12:35:08;33.50;87.70
26803;DHT22;14378;51.796;5.808;2022-09-06T12:37:12;33.70;87.70
26803;DHT22;14378;51.796;5.808;2022-09-06T12:39:13;33.70;86.60
26803;DHT22;14378;51.796;5.808;2022-09-06T12:41:15;33.40;86.70
26803;DHT22;14378;51.796;5.808;2022-09-06T12:43:18;33.50;88.10
26803;DHT22;14378;51.796;5.808;2022-09-06T12:45:22;33.70;87.50
26803;DHT22;14378;51.796;5.808;2022-09-06T12:49:25;33.70;87.20
26803;DHT22;14378;51.796;5.808;2022-09-06T12:51:26;33.60;88.20
26803;DHT22;14378;51.796;5.808;2022-09-06T12:53:27;33.70;88.40
26803;DHT22;14378;51.796;5.808;2022-09-06T12:55:37;34.00;87.40
26803;DHT22;14378;51.796;5.808;2022-09-06T12:57:46;34.20;87.80
26803;DHT22;14378;51.796;5.808;2022-09-06T12:59:56;34.40;88.90
26803;DHT22;14378;51.796;5.808;2022-09-06T13:04:08;34.70;89.30
26803;DHT22;14378;51.796;5.808;2022-09-06T13:06:22;34.90;88.60
26803;DHT22;14378;51.796;5.808;2022-09-06T13:08:33;35.00;86.50
26803;DHT22;14378;51.796;5.808;2022-09-06T13:10:40;35.10;87.10
26803;DHT22;14378;51.796;5.808;2022-09-06T13:12:44;35.20;84.20
26803;DHT22;14378;51.796;5.808;2022-09-06T13:14:51;35.20;82.80
26803;DHT22;14378;51.796;5.808;2022-09-06T13:16:53;35.40;86.70
26803;DHT22;14378;51.796;5.808;2022-09-06T13:19:15;35.40;85.20
26803;DHT22;14378;51.796;5.808;2022-09-06T13:21:37;35.50;82.90
26803;DHT22;14378;51.796;5.808;2022-09-06T13:23:47;35.40;83.00
26803;DHT22;14378;51.796;5.808;2022-09-06T13:25:52;35.50;81.60
26803;DHT22;14378;51.796;5.808;2022-09-06T13:27:54;35.60;82.30
26803;DHT22;14378;51.796;5.808;2022-09-06T13:32:12;35.10;78.00
26803;DHT22;14378;51.796;5.808;2022-09-06T13:34:35;35.10;79.90
26803;DHT22;14378;51.796;5.808;2022-09-06T13:36:36;35.40;81.60
26803;DHT22;14378;51.796;5.808;2022-09-06T13:38:41;35.40;78.40
26803;DHT22;14378;51.796;5.808;2022-09-06T13:40:49;35.50;78.70
26803;DHT22;14378;51.796;5.808;2022-09-06T13:42:59;35.70;79.30
26803;DHT22;14378;51.796;5.808;2022-09-06T13:45:27;35.90;79.20
26803;DHT22;14378;51.796;5.808;2022-09-06T13:47:33;36.00;80.10
26803;DHT22;14378;51.796;5.808;2022-09-06T13:49:35;36.20;79.50
26803;DHT22;14378;51.796;5.808;2022-09-06T13:51:38;36.30;80.20
26803;DHT22;14378;51.796;5.808;2022-09-06T13:53:42;36.40;79.10
26803;DHT22;14378;51.796;5.808;2022-09-06T13:55:44;36.50;77.80
26803;DHT22;14378;51.796;5.808;2022-09-06T13:57:47;36.60;78.90
26803;DHT22;14378;51.796;5.808;2022-09-06T13:59:48;36.60;76.80
26803;DHT22;14378;51.796;5.808;2022-09-06T14:02:00;36.70;78.30
26803;DHT22;14378;51.796;5.808;2022-09-06T14:04:02;36.80;79.30
26803;DHT22;14378;51.796;5.808;2022-09-06T14:06:04;36.80;77.60
26803;DHT22;14378;51.796;5.808;2022-09-06T14:08:06;36.80;76.00
26803;DHT22;14378;51.796;5.808;2022-09-06T14:10:09;36.80;77.00
26803;DHT22;14378;51.796;5.808;2022-09-06T14:12:11;36.60;74.60
26803;DHT22;14378;51.796;5.808;2022-09-06T14:14:12;36.50;76.70
26803;DHT22;14378;51.796;5.808;2022-09-06T14:16:13;36.40;78.30
26803;DHT22;14378;51.796;5.808;2022-09-06T14:18:15;36.20;77.20
26803;DHT22;14378;51.796;5.808;2022-09-06T14:20:21;36.10;77.10
26803;DHT22;14378;51.796;5.808;2022-09-06T14:22:22;35.90;77.00
26803;DHT22;14378;51.796;5.808;2022-09-06T14:24:26;35.80;76.90
26803;DHT22;14378;51.796;5.808;2022-09-06T14:26:28;35.50;76.30
26803;DHT22;14378;51.796;5.808;2022-09-06T14:28:31;35.30;77.50
26803;DHT22;14378;51.796;5.808;2022-09-06T14:30:34;35.10;77.20
26803;DHT22;14378;51.796;5.808;2022-09-06T14:32:37;34.90;78.20
26803;DHT22;14378;51.796;5.808;2022-09-06T14:34:40;34.60;75.00
26803;DHT22;14378;51.796;5.808;2022-09-06T14:36:41;34.40;76.50
26803;DHT22;14378;51.796;5.808;2022-09-06T14:38:43;34.20;77.90
26803;DHT22;14378;51.796;5.808;2022-09-06T14:40:46;34.00;77.80
26803;DHT22;14378;51.796;5.808;2022-09-06T14:42:47;33.80;78.30
26803;DHT22;14378;51.796;5.808;2022-09-06T14:44:49;33.60;79.40
26803;DHT22;14378;51.796;5.808;2022-09-06T14:46:50;33.30;77.00
26803;DHT22;14378;51.796;5.808;2022-09-06T14:48:59;33.10;76.50
26803;DHT22;14378;51.796;5.808;2022-09-06T14:51:17;32.80;77.90
26803;DHT22;14378;51.796;5.808;2022-09-06T14:53:23;32.60;79.50
26803;DHT22;14378;51.796;5.808;2022-09-06T14:55:24;32.40;79.60
26803;DHT22;14378;51.796;5.808;2022-09-06T14:57:28;32.30;78.40
26803;DHT22;14378;51.796;5.808;2022-09-06T14:59:29;32.10;79.70
26803;DHT22;14378;51.796;5.808;2022-09-06T15:01:35;31.90;80.60
26803;DHT22;14378;51.796;5.808;2022-09-06T15:03:36;31.80;81.10
26803;DHT22;14378;51.796;5.808;2022-09-06T15:05:38;31.70;81.10
26803;DHT22;14378;51.796;5.808;2022-09-06T15:07:39;31.50;81.50
26803;DHT22;14378;51.796;5.808;2022-09-06T15:09:43;31.40;82.70
26803;DHT22;14378;51.796;5.808;2022-09-06T15:11:49;31.20;83.30